Airfield :
LOGIN :

Register | Disclaimer

   EN    FR    IT 

 










Legend :    VFR   Marginal VFR   IFR   Intensive IFR   Very Intensive IFR
Visi :
Ceiling :
>= 8 km
>= 3000ft
5 to 8 km
1000 to 3000 ft
1500m to 5 km
500 to 1000 ft
800 to 1500m
200 to 500 ft
< 800m
< 200 ft
Symbols :   Thunderstorms  Fog  Heavy snow  Heavy precipitations  Wind > 20 kt
SIGMETs :     Misc.  Thunderstorms  Icing  Turbulence  Mountain Waves  Volcanic Ashes






- Airport Elevation : 26 ft


ETNT - Wittmundhaven AB

CURRENT METAR :
  • 250620Z 25016G29KT 9999 -SHRA SCT022TCU BKN041 06/02 Q0994 BLU BLU

EXPIRED METARs :
  • 250520Z 25019G30KT 9999 BKN027 06/01 Q0994 BLU BLU
  • 250420Z 25019G29KT 9999 BKN025 06/02 Q0995 BLU

TAF TAF ETNT
Valid from the 25 at 06:00 until the 25 at 15:00 UTC


250522Z 2506/2515 25020G33KT 9999 NSW SCT010 BKN025
TEMPO 2508/2510 26022G42KT 5000 -SHRA FEW010 BKN015TCU
TEMPO 2510/2515 27025G50KT 3000 SHRAGS SCT008 BKN010CB BY ETGL



MET'MAP, your aeronautical weather chart ! - Copyright ORBIFLY December 2007 - Disclaimer

ORBIFLY MET'MAP TEAM :

Programming & Development : Alexandra Zaïnal
Concept & original design : Baudouin d'Aumeries
Assistance for programming : Marc-Olivier Méhu
Technical & hardware support : Manuel Goepfert

Contact : metmap@orbifly.com




SOURCES & CREDITS :

   NOAA